createdAt,value
2017-09-12T00:01:44.028Z,15.97
2017-09-12T00:04:19.135Z,15.95
2017-09-12T00:06:53.691Z,15.89
2017-09-12T00:09:28.355Z,15.72
2017-09-12T00:12:03.420Z,15.75
2017-09-12T00:14:38.212Z,15.76
2017-09-12T00:17:12.995Z,15.76
2017-09-12T00:19:47.744Z,15.73
2017-09-12T00:22:22.627Z,15.80
2017-09-12T00:24:57.372Z,15.86
2017-09-12T00:27:32.955Z,15.73
2017-09-12T00:30:07.791Z,15.82
2017-09-12T00:32:42.290Z,15.82
2017-09-12T00:35:17.442Z,15.84
2017-09-12T00:37:52.356Z,15.77
2017-09-12T00:40:26.860Z,15.83
2017-09-12T00:43:01.615Z,15.72
2017-09-12T00:45:36.011Z,15.73
2017-09-12T00:48:11.146Z,15.63
2017-09-12T00:50:45.960Z,15.58
2017-09-12T00:53:20.427Z,15.56
2017-09-12T00:55:55.116Z,15.49
2017-09-12T00:58:29.802Z,15.48
2017-09-12T01:01:04.575Z,15.52
2017-09-12T01:03:39.648Z,15.53
2017-09-12T01:06:15.876Z,15.50
2017-09-12T01:08:51.055Z,15.52
2017-09-12T01:11:25.603Z,15.49
2017-09-12T01:14:00.581Z,15.54
2017-09-12T01:16:34.886Z,15.51
2017-09-12T01:19:09.753Z,15.55
2017-09-12T01:21:44.465Z,15.50
2017-09-12T01:24:18.850Z,15.69
2017-09-12T01:26:53.955Z,15.57
2017-09-12T01:29:28.332Z,15.64
2017-09-12T01:32:03.163Z,15.68
2017-09-12T01:34:38.108Z,15.68
2017-09-12T01:37:13.202Z,15.61
2017-09-12T01:39:48.075Z,15.56
2017-09-12T01:42:23.003Z,15.74
2017-09-12T01:44:57.891Z,15.68
2017-09-12T01:47:32.818Z,15.70
2017-09-12T01:50:07.283Z,15.69
2017-09-12T01:52:42.309Z,15.71
2017-09-12T01:55:17.144Z,15.73
2017-09-12T01:57:51.959Z,15.64
2017-09-12T02:00:27.358Z,15.61
2017-09-12T02:03:02.755Z,15.58
2017-09-12T02:05:37.450Z,15.61
2017-09-12T02:08:12.355Z,15.61
2017-09-12T02:10:47.293Z,15.40
2017-09-12T02:13:22.021Z,15.58
2017-09-12T02:15:56.751Z,15.56
2017-09-12T02:18:31.624Z,15.60
2017-09-12T02:21:06.388Z,15.64
2017-09-12T02:23:41.121Z,15.59
2017-09-12T02:26:15.656Z,15.61
2017-09-12T02:28:50.374Z,15.74
2017-09-12T02:31:25.047Z,15.69
2017-09-12T02:33:59.857Z,15.65
2017-09-12T02:36:34.584Z,15.57
2017-09-12T02:39:09.690Z,15.67
2017-09-12T02:41:45.281Z,15.56
2017-09-12T02:44:19.607Z,15.55
2017-09-12T02:46:54.698Z,15.53
2017-09-12T02:49:29.344Z,15.46
2017-09-12T02:52:04.053Z,15.55
2017-09-12T02:54:38.870Z,15.31
2017-09-12T02:57:13.741Z,15.49
2017-09-12T02:59:48.316Z,15.49
2017-09-12T03:02:22.917Z,15.43
2017-09-12T03:04:57.629Z,15.45
2017-09-12T03:07:32.443Z,15.45
2017-09-12T03:10:07.187Z,15.44
2017-09-12T03:12:41.947Z,15.38
2017-09-12T03:15:16.675Z,15.40
2017-09-12T03:17:51.688Z,15.47
2017-09-12T03:20:26.212Z,15.40
2017-09-12T03:23:00.917Z,15.40
2017-09-12T03:25:35.863Z,15.47
2017-09-12T03:28:10.544Z,15.51
2017-09-12T03:30:45.352Z,15.41
2017-09-12T03:33:20.056Z,15.52
2017-09-12T03:35:54.701Z,15.44
2017-09-12T03:38:29.501Z,15.52
2017-09-12T03:41:04.287Z,15.42
2017-09-12T03:43:38.924Z,15.49
2017-09-12T03:46:13.767Z,15.48
2017-09-12T03:48:48.635Z,15.52
2017-09-12T03:51:23.016Z,15.54
2017-09-12T03:53:57.926Z,15.57
2017-09-12T03:56:32.678Z,15.54
2017-09-12T03:59:07.263Z,15.54
2017-09-12T04:01:41.991Z,15.57
2017-09-12T04:04:16.654Z,15.53
2017-09-12T04:06:51.307Z,15.48
2017-09-12T04:09:26.175Z,15.53
2017-09-12T04:12:00.840Z,15.47
2017-09-12T04:14:35.740Z,15.51
2017-09-12T04:17:10.483Z,15.55
2017-09-12T04:19:45.367Z,15.44
2017-09-12T04:22:20.150Z,15.43
2017-09-12T04:24:55.365Z,15.48
2017-09-12T04:27:29.923Z,15.44
2017-09-12T04:30:04.576Z,15.49
2017-09-12T04:32:39.311Z,15.39
2017-09-12T04:35:14.391Z,15.29
2017-09-12T04:37:49.396Z,15.31
2017-09-12T04:40:23.727Z,15.33
2017-09-12T04:42:58.767Z,15.27
2017-09-12T04:45:33.324Z,15.20
2017-09-12T04:48:07.897Z,15.27
2017-09-12T04:50:42.994Z,15.23
2017-09-12T04:53:17.686Z,15.23
2017-09-12T04:55:52.383Z,15.09
2017-09-12T04:58:27.321Z,15.17
2017-09-12T05:01:02.112Z,15.25
2017-09-12T05:03:36.995Z,15.25
2017-09-12T05:06:11.727Z,15.18
2017-09-12T05:08:46.116Z,15.20
2017-09-12T05:11:21.180Z,15.21
2017-09-12T05:13:56.012Z,15.14
2017-09-12T05:16:30.702Z,15.16
2017-09-12T05:19:06.390Z,15.21
2017-09-12T05:21:41.192Z,15.23
2017-09-12T05:24:15.779Z,15.23
2017-09-12T05:26:50.704Z,15.23
2017-09-12T05:29:25.517Z,15.10
2017-09-12T05:32:00.345Z,15.13
2017-09-12T05:34:35.080Z,15.02
2017-09-12T05:37:09.699Z,15.01
2017-09-12T05:39:44.355Z,15.07
2017-09-12T05:42:19.532Z,14.99
2017-09-12T05:44:54.835Z,15.01
2017-09-12T05:47:29.540Z,14.93
2017-09-12T05:50:04.320Z,14.94
2017-09-12T05:52:39.235Z,14.94
2017-09-12T05:55:13.747Z,14.92
2017-09-12T05:57:48.431Z,14.95
2017-09-12T06:00:23.183Z,15.16
2017-09-12T06:02:57.967Z,15.13
2017-09-12T06:05:32.621Z,15.17
2017-09-12T06:08:07.343Z,15.21
2017-09-12T06:10:42.255Z,15.28
2017-09-12T06:13:17.096Z,15.37
2017-09-12T06:15:51.763Z,15.42
2017-09-12T06:18:26.546Z,15.52
2017-09-12T06:21:01.247Z,15.55
2017-09-12T06:23:36.308Z,15.62
2017-09-12T06:26:11.251Z,15.59
2017-09-12T06:28:45.981Z,15.74
2017-09-12T06:31:21.616Z,15.82
2017-09-12T06:33:56.344Z,15.85
2017-09-12T06:36:31.027Z,15.94
2017-09-12T06:39:05.112Z,16.08
2017-09-12T06:41:39.816Z,16.12
2017-09-12T06:44:14.694Z,16.10
2017-09-12T06:46:49.511Z,16.15
2017-09-12T06:49:24.039Z,16.06
2017-09-12T06:51:58.909Z,16.11
2017-09-12T06:54:33.697Z,16.07
2017-09-12T06:57:08.692Z,16.13
2017-09-12T06:59:43.047Z,16.14
2017-09-12T07:02:18.099Z,16.17
2017-09-12T07:04:52.888Z,16.23
2017-09-12T07:07:27.650Z,16.20
2017-09-12T07:10:02.144Z,16.10
2017-09-12T07:12:36.893Z,16.06
2017-09-12T07:15:11.851Z,16.15
2017-09-12T07:17:46.700Z,16.08
2017-09-12T07:20:22.225Z,15.96
2017-09-12T07:22:57.083Z,15.95
2017-09-12T07:25:31.499Z,15.93
2017-09-12T07:28:06.539Z,15.89
2017-09-12T07:30:41.331Z,15.79
2017-09-12T07:33:16.125Z,15.95
2017-09-12T07:35:51.123Z,15.97
2017-09-12T07:38:25.904Z,15.91
2017-09-12T07:41:00.802Z,15.99
2017-09-12T07:43:35.496Z,15.94
2017-09-12T07:46:10.525Z,15.88
2017-09-12T07:48:45.198Z,15.89
2017-09-12T07:51:19.795Z,15.63
2017-09-12T07:53:54.583Z,15.65
2017-09-12T07:56:29.556Z,15.68
2017-09-12T07:59:04.256Z,15.68
2017-09-12T08:01:39.388Z,15.64
2017-09-12T08:04:14.204Z,15.60
2017-09-12T08:06:49.187Z,15.65
2017-09-12T08:09:23.802Z,15.70
2017-09-12T08:11:58.407Z,15.65
2017-09-12T08:14:33.397Z,15.58
2017-09-12T08:17:07.999Z,15.64
2017-09-12T08:19:42.696Z,15.74
2017-09-12T08:22:17.504Z,15.93
2017-09-12T08:24:52.310Z,15.99
2017-09-12T08:27:26.932Z,16.12
2017-09-12T08:30:01.448Z,16.20
2017-09-12T08:32:37.281Z,16.36
2017-09-12T08:35:12.081Z,16.51
2017-09-12T08:37:47.965Z,16.71
2017-09-12T08:40:22.859Z,17.09
2017-09-12T08:42:57.892Z,17.24
2017-09-12T08:45:32.491Z,17.55
2017-09-12T08:48:07.103Z,17.55
2017-09-12T08:50:41.903Z,17.64
2017-09-12T08:53:16.528Z,17.83
2017-09-12T08:55:51.135Z,17.89
2017-09-12T08:58:25.735Z,18.13
2017-09-12T09:01:00.818Z,18.23
2017-09-12T09:03:35.948Z,18.34
2017-09-12T09:06:10.777Z,18.35
2017-09-12T09:08:45.574Z,18.16
2017-09-12T09:11:20.191Z,18.15
2017-09-12T09:13:54.993Z,18.22
2017-09-12T09:16:29.804Z,18.60
2017-09-12T09:19:04.498Z,18.61
2017-09-12T09:21:39.292Z,18.50
2017-09-12T09:24:14.137Z,18.46
2017-09-12T09:26:48.711Z,18.32
2017-09-12T09:29:23.587Z,18.09
2017-09-12T09:31:58.442Z,18.16
2017-09-12T09:34:33.198Z,18.49
2017-09-12T09:37:07.724Z,18.78
2017-09-12T09:39:42.271Z,18.89
2017-09-12T09:42:17.180Z,18.80
2017-09-12T09:44:52.077Z,18.58
2017-09-12T09:47:26.679Z,18.44
2017-09-12T09:50:01.114Z,18.39
2017-09-12T09:52:35.923Z,18.53
2017-09-12T09:55:10.805Z,19.07
2017-09-12T09:57:45.699Z,19.29
2017-09-12T10:00:20.723Z,19.12
2017-09-12T10:02:55.354Z,18.98
2017-09-12T10:05:30.273Z,19.24
2017-09-12T10:08:05.169Z,19.23
2017-09-12T10:10:40.077Z,19.09
2017-09-12T10:13:14.494Z,18.69
2017-09-12T10:15:49.354Z,18.84
2017-09-12T10:18:24.460Z,19.14
2017-09-12T10:20:59.059Z,19.06
2017-09-12T10:23:33.664Z,18.83
2017-09-12T10:26:08.324Z,18.91
2017-09-12T10:28:43.004Z,19.10
2017-09-12T10:31:17.707Z,19.09
2017-09-12T10:33:52.609Z,18.96
2017-09-12T10:36:27.401Z,18.44
2017-09-12T10:39:02.203Z,18.20
2017-09-12T10:41:37.028Z,18.39
2017-09-12T10:44:11.569Z,18.87
2017-09-12T10:46:46.479Z,19.19
2017-09-12T10:49:21.187Z,19.32
2017-09-12T10:51:56.019Z,19.21
2017-09-12T10:54:30.250Z,19.05
2017-09-12T10:57:05.147Z,18.98
2017-09-12T11:02:13.627Z,19.13
2017-09-12T11:04:48.359Z,19.24
2017-09-12T11:07:23.292Z,19.35
2017-09-12T11:09:58.052Z,19.71
2017-09-12T11:12:32.744Z,20.08
2017-09-12T11:15:07.411Z,20.25
2017-09-12T11:17:42.107Z,20.57
2017-09-12T11:20:16.912Z,20.38
2017-09-12T11:22:51.791Z,20.16
2017-09-12T11:25:26.716Z,19.87
2017-09-12T11:28:02.275Z,19.44
2017-09-12T11:30:37.039Z,18.98
2017-09-12T11:33:11.643Z,18.28
2017-09-12T11:35:46.488Z,18.02
2017-09-12T11:38:21.629Z,17.96
2017-09-12T11:40:56.425Z,18.31
2017-09-12T11:43:31.335Z,18.29
2017-09-12T11:46:06.047Z,18.54
2017-09-12T11:48:40.840Z,18.94
2017-09-12T11:51:15.675Z,19.51
2017-09-12T11:53:50.275Z,19.81
2017-09-12T11:56:25.217Z,19.96
2017-09-12T11:59:00.045Z,20.51
2017-09-12T12:01:34.619Z,20.48
2017-09-12T12:04:09.428Z,20.11
2017-09-12T12:06:44.351Z,20.09
2017-09-12T12:09:19.204Z,20.13
2017-09-12T12:11:54.044Z,20.43
2017-09-12T12:14:28.853Z,20.51
2017-09-12T12:17:03.653Z,20.75
2017-09-12T12:19:38.589Z,20.81
2017-09-12T12:22:13.368Z,21.08
2017-09-12T12:24:48.260Z,21.03
2017-09-12T12:27:23.073Z,20.96
2017-09-12T12:29:57.822Z,21.11
2017-09-12T12:32:32.317Z,20.75
2017-09-12T12:35:07.024Z,20.63
2017-09-12T12:37:41.731Z,20.27
2017-09-12T12:40:16.842Z,20.41
2017-09-12T12:42:51.523Z,20.80
2017-09-12T12:45:26.310Z,21.15
2017-09-12T12:48:00.975Z,20.77
2017-09-12T12:50:36.415Z,20.49
2017-09-12T12:53:11.229Z,20.10
2017-09-12T12:55:45.939Z,19.69
2017-09-12T12:58:20.932Z,19.34
2017-09-12T13:00:55.909Z,18.73
2017-09-12T13:03:30.607Z,18.50
2017-09-12T13:06:05.288Z,18.28
2017-09-12T13:08:39.932Z,18.26
2017-09-12T13:11:14.820Z,18.45
2017-09-12T13:13:49.185Z,18.53
2017-09-12T13:16:24.079Z,18.73
2017-09-12T13:18:58.815Z,19.03
2017-09-12T13:21:33.637Z,19.11
2017-09-12T13:24:08.306Z,19.45
2017-09-12T13:26:42.863Z,19.17
2017-09-12T13:29:17.808Z,18.99
2017-09-12T13:31:52.557Z,19.04
2017-09-12T13:34:28.135Z,19.07
2017-09-12T13:37:02.875Z,19.01
2017-09-12T13:39:37.627Z,18.95
2017-09-12T13:42:12.307Z,19.05
2017-09-12T13:44:47.216Z,19.02
2017-09-12T13:47:22.144Z,18.77
2017-09-12T13:49:56.971Z,18.45
2017-09-12T13:52:31.608Z,18.50
2017-09-12T13:55:06.257Z,18.51
2017-09-12T13:57:41.192Z,18.55
2017-09-12T14:00:19.026Z,18.21
2017-09-12T14:02:53.884Z,18.24
2017-09-12T14:05:28.667Z,18.28
2017-09-12T14:08:03.476Z,18.24
2017-09-12T14:10:38.339Z,18.33
2017-09-12T14:13:12.912Z,18.37
2017-09-12T14:15:47.764Z,18.43
2017-09-12T14:18:22.124Z,18.68
2017-09-12T14:20:56.948Z,19.02
2017-09-12T14:23:31.574Z,19.17
2017-09-12T14:26:06.156Z,18.97
2017-09-12T14:28:41.305Z,18.67
2017-09-12T14:31:15.792Z,18.51
2017-09-12T14:33:50.758Z,18.56
2017-09-12T14:36:25.807Z,18.62
2017-09-12T14:39:00.519Z,18.78
2017-09-12T14:41:35.403Z,18.99
2017-09-12T14:44:09.900Z,19.24
2017-09-12T14:46:44.918Z,19.34
2017-09-12T14:49:19.625Z,19.29
2017-09-12T14:51:54.645Z,19.21
2017-09-12T14:54:29.403Z,19.27
2017-09-12T14:57:04.342Z,19.42
2017-09-12T14:59:38.988Z,19.13
2017-09-12T15:02:13.894Z,19.16
2017-09-12T15:04:48.831Z,19.17
2017-09-12T15:07:23.552Z,19.11
2017-09-12T15:09:58.285Z,19.24
2017-09-12T15:12:33.202Z,19.36
2017-09-12T15:15:08.010Z,19.32
2017-09-12T15:17:42.740Z,19.05
2017-09-12T15:20:17.742Z,18.94
2017-09-12T15:22:52.537Z,18.93
2017-09-12T15:25:27.181Z,18.96
2017-09-12T15:28:01.937Z,19.20
2017-09-12T15:30:36.783Z,19.32
2017-09-12T15:33:11.263Z,19.46
2017-09-12T15:35:46.295Z,19.34
2017-09-12T15:38:20.817Z,19.26
2017-09-12T15:40:55.458Z,19.12
2017-09-12T15:43:30.442Z,19.13
2017-09-12T15:46:05.099Z,19.09
2017-09-12T15:48:40.042Z,18.87
2017-09-12T15:51:15.421Z,18.72
2017-09-12T15:53:50.440Z,18.58
2017-09-12T15:56:24.994Z,18.52
2017-09-12T15:58:59.846Z,18.44
2017-09-12T16:01:34.648Z,18.54
2017-09-12T16:04:09.431Z,18.50
2017-09-12T16:06:44.377Z,18.37
2017-09-12T16:09:19.206Z,18.22
2017-09-12T16:11:54.060Z,18.06
2017-09-12T16:14:29.160Z,17.91
2017-09-12T16:17:04.161Z,17.98
2017-09-12T16:19:39.076Z,17.60
2017-09-12T16:22:13.960Z,17.31
2017-09-12T16:24:48.756Z,17.09
2017-09-12T16:27:24.527Z,16.88
2017-09-12T16:29:59.333Z,16.66
2017-09-12T16:32:34.143Z,16.62
2017-09-12T16:35:08.921Z,16.68
2017-09-12T16:37:43.893Z,16.73
2017-09-12T16:40:18.733Z,16.80
2017-09-12T16:42:53.709Z,16.75
2017-09-12T16:45:28.539Z,16.77
2017-09-12T16:48:03.271Z,16.81
2017-09-12T16:50:38.063Z,16.87
2017-09-12T16:53:12.855Z,16.78
2017-09-12T16:55:47.981Z,16.74
2017-09-12T16:58:22.317Z,16.73
2017-09-12T17:00:57.382Z,16.75
2017-09-12T17:03:32.011Z,16.71
2017-09-12T17:06:06.776Z,16.70
2017-09-12T17:08:41.939Z,16.68
2017-09-12T17:11:16.588Z,16.68
2017-09-12T17:13:52.059Z,16.73
2017-09-12T17:16:26.737Z,16.79
2017-09-12T17:19:01.683Z,16.79
2017-09-12T17:21:36.355Z,16.77
2017-09-12T17:24:11.056Z,16.72
2017-09-12T17:26:45.662Z,16.69
2017-09-12T17:29:20.638Z,16.70
2017-09-12T17:31:55.232Z,16.52
2017-09-12T17:34:30.057Z,16.26
2017-09-12T17:37:04.703Z,16.07
2017-09-12T17:39:39.435Z,15.89
2017-09-12T17:42:14.334Z,15.82
2017-09-12T17:44:49.912Z,15.83
2017-09-12T17:47:24.535Z,15.86
2017-09-12T17:49:59.335Z,15.86
2017-09-12T17:52:34.351Z,15.87
2017-09-12T17:55:10.704Z,15.87
2017-09-12T17:57:45.863Z,15.92
2017-09-12T18:00:20.215Z,15.91
2017-09-12T18:02:55.147Z,15.94
2017-09-12T18:05:29.837Z,15.90
2017-09-12T18:08:04.562Z,15.90
2017-09-12T18:10:39.262Z,15.93
2017-09-12T18:13:13.955Z,15.90
2017-09-12T18:15:48.792Z,15.87
2017-09-12T18:18:23.832Z,15.77
2017-09-12T18:21:04.138Z,15.71
2017-09-12T18:23:39.553Z,15.67
2017-09-12T18:26:14.240Z,15.65
2017-09-12T18:28:49.164Z,15.54
2017-09-12T18:31:24.049Z,15.44
2017-09-12T18:33:58.753Z,15.26
2017-09-12T18:36:33.595Z,15.32
2017-09-12T18:39:08.284Z,15.39
2017-09-12T18:41:43.104Z,15.33
2017-09-12T18:44:18.165Z,15.26
2017-09-12T18:46:53.039Z,15.14
2017-09-12T18:49:27.838Z,15.01
2017-09-12T18:52:02.628Z,14.96
2017-09-12T18:54:37.131Z,15.03
2017-09-12T18:57:12.572Z,15.05
2017-09-12T18:59:47.019Z,15.07
2017-09-12T19:02:21.820Z,14.99
2017-09-12T19:04:56.613Z,15.00
2017-09-12T19:07:31.583Z,15.05
2017-09-12T19:10:06.330Z,15.03
2017-09-12T19:12:41.135Z,14.98
2017-09-12T19:15:16.033Z,14.88
2017-09-12T19:17:50.963Z,14.76
2017-09-12T19:20:25.886Z,14.65
2017-09-12T19:23:06.618Z,14.60
2017-09-12T19:25:41.654Z,14.53
2017-09-12T19:28:16.346Z,14.57
2017-09-12T19:30:51.125Z,14.54
2017-09-12T19:33:26.045Z,14.51
2017-09-12T19:36:00.780Z,14.48
2017-09-12T19:38:35.624Z,14.47
2017-09-12T19:41:10.239Z,14.45
2017-09-12T19:43:45.219Z,14.44
2017-09-12T19:46:20.203Z,14.39
2017-09-12T19:48:55.104Z,14.37
2017-09-12T19:51:29.947Z,14.31
2017-09-12T19:54:04.741Z,14.19
2017-09-12T19:56:39.591Z,14.22
2017-09-12T19:59:14.423Z,14.26
2017-09-12T20:01:49.135Z,14.07
2017-09-12T20:04:24.247Z,14.03
2017-09-12T20:06:58.765Z,14.04
2017-09-12T20:09:33.662Z,14.10
2017-09-12T20:12:08.342Z,14.08
2017-09-12T20:14:43.073Z,14.07
2017-09-12T20:17:17.709Z,14.08
2017-09-12T20:19:52.416Z,13.91
2017-09-12T20:22:27.946Z,13.94
2017-09-12T20:25:03.019Z,13.87
2017-09-12T20:27:38.084Z,13.88
2017-09-12T20:30:12.795Z,13.82
2017-09-12T20:32:47.583Z,13.77
2017-09-12T20:35:22.688Z,13.84
2017-09-12T20:37:57.519Z,13.82
2017-09-12T20:40:32.218Z,13.82
2017-09-12T20:43:06.980Z,13.82
2017-09-12T20:45:41.780Z,13.52
2017-09-12T20:48:16.433Z,13.65
2017-09-12T20:50:51.414Z,13.60
2017-09-12T20:53:26.272Z,13.62
2017-09-12T20:56:01.164Z,13.52
2017-09-12T20:58:35.959Z,13.56
2017-09-12T21:01:10.705Z,13.59
2017-09-12T21:03:45.527Z,13.56
2017-09-12T21:06:20.562Z,13.54
2017-09-12T21:08:55.287Z,13.50
2017-09-12T21:11:30.041Z,13.52
2017-09-12T21:14:04.855Z,13.42
2017-09-12T21:16:39.575Z,13.41
2017-09-12T21:19:14.291Z,13.40
2017-09-12T21:21:49.211Z,13.36
2017-09-12T21:24:23.914Z,13.30
2017-09-12T21:26:58.795Z,13.35
2017-09-12T21:29:33.334Z,13.31
2017-09-12T21:32:08.151Z,13.31
2017-09-12T21:34:42.779Z,13.34
2017-09-12T21:37:17.441Z,13.34
2017-09-12T21:39:52.056Z,13.26
2017-09-12T21:42:26.721Z,13.26
2017-09-12T21:45:01.516Z,13.19
2017-09-12T21:47:36.171Z,13.07
2017-09-12T21:50:10.827Z,13.01
2017-09-12T21:52:45.659Z,12.92
2017-09-12T21:55:20.263Z,12.81
2017-09-12T21:57:54.890Z,12.86
2017-09-12T22:00:29.661Z,12.91
2017-09-12T22:03:04.476Z,12.89
2017-09-12T22:05:39.040Z,13.05
2017-09-12T22:08:13.672Z,13.17
2017-09-12T22:10:48.486Z,13.14
2017-09-12T22:13:23.367Z,13.17
2017-09-12T22:15:58.080Z,13.10
2017-09-12T22:18:32.786Z,13.10
2017-09-12T22:21:08.388Z,13.00
2017-09-12T22:23:43.312Z,12.99
2017-09-12T22:26:18.995Z,12.86
2017-09-12T22:28:53.656Z,12.78
2017-09-12T22:31:29.157Z,12.92
2017-09-12T22:34:03.531Z,12.88
2017-09-12T22:36:38.650Z,12.99
2017-09-12T22:39:13.414Z,13.01
2017-09-12T22:41:49.764Z,12.98
2017-09-12T22:44:24.239Z,12.93
2017-09-12T22:46:58.985Z,13.00
2017-09-12T22:49:33.639Z,12.98
2017-09-12T22:52:08.585Z,13.16
2017-09-12T22:54:43.095Z,13.17
2017-09-12T22:57:17.940Z,13.17
2017-09-12T22:59:52.704Z,13.21
2017-09-12T23:02:27.217Z,13.26
2017-09-12T23:05:02.232Z,13.18
2017-09-12T23:07:36.899Z,13.20
2017-09-12T23:10:11.439Z,13.19
2017-09-12T23:12:45.935Z,13.29
2017-09-12T23:15:20.927Z,13.36
2017-09-12T23:17:55.751Z,13.31
2017-09-12T23:20:30.568Z,13.32
2017-09-12T23:23:05.550Z,13.42
2017-09-12T23:25:40.355Z,13.41
2017-09-12T23:28:15.156Z,13.45
2017-09-12T23:30:50.013Z,13.46
2017-09-12T23:33:24.790Z,13.37
2017-09-12T23:35:59.143Z,13.37
2017-09-12T23:38:33.955Z,13.37
2017-09-12T23:41:08.672Z,13.41
2017-09-12T23:43:43.368Z,13.31
2017-09-12T23:46:18.288Z,13.47
2017-09-12T23:48:53.099Z,13.35
2017-09-12T23:51:27.741Z,13.38
2017-09-12T23:54:03.644Z,13.47
2017-09-12T23:56:38.248Z,13.56
2017-09-12T23:59:12.863Z,13.45
